Time;durP1;ratioP1;P1;durP2;ratioP2;P2;SDS_P1;SDS_P2;PMS_P1;PMS_P2;Temp;Humidity;BMP_temperature;BMP_pressure;BME280_temperature;BME280_humidity;BME280_pressure;Samples;Min_cycle;Max_cycle;Signal;HPM_P1;HPM_P2
2022/06/13 00:17:22;;;;;;;10.88;2.58;;;;;;;9.68;87.84;101227.88;6144295;23;20089;-74
2022/06/13 00:19:48;;;;;;;8.80;2.22;;;;;;;9.69;87.39;101235.84;6113229;23;20088;-73
2022/06/13 00:22:13;;;;;;;9.93;3.05;;;;;;;9.56;87.31;101234.22;6130954;23;20014;-74
2022/06/13 00:24:39;;;;;;;11.88;3.35;;;;;;;9.52;87.72;101230.28;6083677;23;20016;-71
2022/06/13 00:27:05;;;;;;;11.63;2.72;;;;;;;9.47;87.75;101227.44;6132309;23;20009;-72
2022/06/13 00:29:30;;;;;;;9.20;2.42;;;;;;;9.43;87.66;101239.91;6131412;23;20065;-72
2022/06/13 00:32:07;;;;;;;7.35;2.35;;;;;;;9.24;87.98;101218.22;6131567;23;20574;-73
2022/06/13 00:34:32;;;;;;;14.40;2.60;;;;;;;9.22;87.80;101230.44;6132368;23;20016;-72
2022/06/13 00:36:58;;;;;;;7.60;2.75;;;;;;;9.20;87.95;101227.94;6135057;23;20066;-72
2022/06/13 00:39:24;;;;;;;7.20;2.97;;;;;;;9.17;88.75;101227.56;6109077;23;20017;-74
2022/06/13 00:41:50;;;;;;;8.07;2.50;;;;;;;9.15;87.96;101216.06;6130651;23;20014;-72
2022/06/13 00:44:37;;;;;;;11.30;3.38;;;;;;;9.09;88.66;101215.13;6131824;23;20016;-71
2022/06/13 00:47:03;;;;;;;8.90;2.45;;;;;;;9.06;88.33;101221.03;6131029;23;20469;-73
2022/06/13 00:49:44;;;;;;;7.82;2.30;;;;;;;8.98;88.98;101207.75;6130466;23;20010;-73
2022/06/13 00:52:21;;;;;;;11.43;2.67;;;;;;;8.99;88.80;101210.25;6107834;23;20013;-75
2022/06/13 00:55:10;;;;;;;11.35;2.83;;;;;;;8.98;88.82;101202.28;6109964;23;20012;-73
2022/06/13 00:58:01;;;;;;;13.98;3.10;;;;;;;8.86;89.12;101189.50;6101079;23;20014;-72
2022/06/13 01:00:57;;;;;;;;;;;;;;;;;;;;;
2022/06/13 01:03:28;;;;;;;7.35;2.42;;;;;;;9.00;90.21;101214.63;6074575;23;20034;-74
2022/06/13 01:06:25;;;;;;;9.60;3.22;;;;;;;9.02;90.13;101222.59;6134850;23;20001;-74
2022/06/13 01:09:27;;;;;;;;;;;;;;;;;;;;;
2022/06/13 01:12:22;;;;;;;21.45;3.63;;;;;;;8.74;90.80;101181.28;6155126;23;20009;-73
2022/06/13 01:18:23;;;;;;;13.02;2.72;;;;;;;8.90;90.93;101223.38;6160564;23;20088;-74
2022/06/13 01:21:26;;;;;;;;;;;;;;;;;;;;;
2022/06/13 01:38:13;;;;;;;14.40;3.22;;;;;;;9.01;94.43;101234.56;6105072;23;20112;-74
2022/06/13 01:44:58;;;;;;;;;;;;;;;;;;;;;
2022/06/13 01:48:18;;;;;;;;;;;;;;;;;;;;;
2022/06/13 01:51:12;;;;;;;15.63;3.75;;;;;;;9.08;95.44;101233.41;6090935;23;20038;-74
2022/06/13 01:53:44;;;;;;;14.27;3.25;;;;;;;9.11;96.09;101234.78;6099927;23;20014;-73
2022/06/13 01:56:48;;;;;;;16.98;3.38;;;;;;;9.12;96.67;101239.19;6099555;23;20027;-73
2022/06/13 02:00:16;;;;;;;9.85;3.60;;;;;;;9.12;96.04;101225.56;6132705;23;20009;-73
2022/06/13 02:06:12;;;;;;;19.92;5.28;;;;;;;9.09;96.53;101236.94;6121287;23;20368;-73
2022/06/13 02:08:50;;;;;;;15.43;4.38;;;;;;;9.06;96.89;101237.41;6154191;23;20002;-72
2022/06/13 02:11:37;;;;;;;25.15;3.60;;;;;;;9.00;96.53;101228.28;6156679;23;20005;-72
2022/06/13 02:15:09;;;;;;;17.67;3.58;;;;;;;8.98;96.49;101229.56;6129107;23;20041;-72
2022/06/13 02:17:50;;;;;;;17.92;3.65;;;;;;;8.85;96.99;101223.28;6007405;23;20019;-74
2022/06/13 02:23:50;;;;;;;19.77;3.65;;;;;;;8.83;96.84;101230.03;6157082;23;20024;-73
2022/06/13 02:26:41;;;;;;;;;;;;;;;;;;;;;
2022/06/13 02:29:38;;;;;;;;;;;;;;;;;;;;;
2022/06/13 02:32:12;;;;;;;12.50;3.60;;;;;;;8.69;97.23;101208.44;6162262;23;20029;-72
2022/06/13 02:35:07;;;;;;;13.37;3.60;;;;;;;8.73;97.35;101215.09;6137101;23;20064;-74
2022/06/13 02:38:22;;;;;;;18.05;3.70;;;;;;;8.74;97.17;101235.00;6094305;23;20231;-73
2022/06/13 02:41:02;;;;;;;18.27;3.78;;;;;;;8.58;97.93;101208.41;6134088;23;20005;-72
2022/06/13 02:44:18;;;;;;;10.07;3.15;;;;;;;8.58;97.91;101211.97;6159091;23;20029;-72
2022/06/13 02:47:05;;;;;;;16.65;3.67;;;;;;;8.56;98.24;101212.19;5989445;23;20008;-74
2022/06/13 02:50:42;;;;;;;;;;;;;;;;;;;;;
2022/06/13 02:53:22;;;;;;;27.02;4.07;;;;;;;8.48;97.92;101198.88;5990374;23;20140;-73
2022/06/13 02:56:32;;;;;;;14.07;4.10;;;;;;;8.58;98.09;101219.31;5988373;23;20015;-73
2022/06/13 02:59:40;;;;;;;;;;;;;;;;;;;;;
2022/06/13 03:02:10;;;;;;;13.60;4.13;;;;;;;8.34;98.93;101195.50;6159064;23;20053;-72
2022/06/13 03:05:18;;;;;;;;;;;;;;;;;;;;;
2022/06/13 03:08:19;;;;;;;15.85;4.10;;;;;;;8.61;98.55;101241.47;6158731;23;20067;-74
2022/06/13 03:11:06;;;;;;;17.67;4.20;;;;;;;8.63;99.32;101238.50;6072541;23;20068;-73
2022/06/13 03:14:24;;;;;;;10.60;3.65;;;;;;;8.37;99.72;101205.94;6133499;23;20005;-74
2022/06/13 03:17:08;;;;;;;13.40;3.70;;;;;;;8.41;99.40;101225.41;5992873;23;20452;-73
2022/06/13 03:20:06;;;;;;;19.50;3.67;;;;;;;8.55;99.68;101243.22;5988387;23;20016;-71
2022/06/13 03:23:06;;;;;;;14.75;3.35;;;;;;;8.52;99.61;101243.69;6118538;23;20021;-72
2022/06/13 03:26:16;;;;;;;14.70;3.55;;;;;;;8.43;100.00;101234.16;6163367;23;20312;-72
2022/06/13 03:29:19;;;;;;;18.75;4.60;;;;;;;8.50;99.82;101251.28;6163528;23;20049;-71
2022/06/13 03:31:50;;;;;;;16.55;4.05;;;;;;;8.41;100.00;101240.91;6132590;23;20137;-72
2022/06/13 03:34:41;;;;;;;;;;;;;;;;;;;;;
2022/06/13 03:37:34;;;;;;;19.52;4.78;;;;;;;8.28;99.84;101236.47;6159468;23;20428;-72
2022/06/13 03:40:52;;;;;;;15.68;3.83;;;;;;;8.35;99.62;101256.28;6133212;23;20008;-73
2022/06/13 03:44:14;;;;;;;18.95;3.78;;;;;;;8.32;99.60;101243.97;6012917;23;20008;-72
2022/06/13 03:47:06;;;;;;;16.40;3.50;;;;;;;8.23;100.00;101244.53;6066470;23;20015;-74
2022/06/13 03:50:09;;;;;;;;;;;;;;;;;;;;;
2022/06/13 03:52:51;;;;;;;12.32;3.65;;;;;;;8.19;99.84;101238.69;6147630;23;20028;-72
2022/06/13 03:56:03;;;;;;;;;;;;;;;;;;;;;
2022/06/13 03:59:05;;;;;;;;;;;;;;;;;;;;;
2022/06/13 04:01:49;;;;;;;7.85;2.95;;;;;;;8.15;100.00;101265.56;6157251;23;20369;-73
2022/06/13 04:04:49;;;;;;;;;;;;;;;;;;;;;
2022/06/13 04:11:20;;;;;;;;;;;;;;;;;;;;;
2022/06/13 04:14:04;;;;;;;;;;;;;;;;;;;;;
2022/06/13 04:17:21;;;;;;;11.02;3.35;;;;;;;7.84;99.53;101232.00;6161927;23;20037;-75
2022/06/13 04:20:34;;;;;;;13.68;3.42;;;;;;;8.12;98.71;101276.94;6135786;23;20356;-73
2022/06/13 04:26:49;;;;;;;6.00;2.67;;;;;;;7.98;99.26;101259.09;6124121;23;20041;-74
2022/06/13 04:29:53;;;;;;;9.55;2.63;;;;;;;7.97;98.90;101246.50;6136675;23;20008;-72
2022/06/13 04:33:00;;;;;;;;;;;;;;;;;;;;;
2022/06/13 04:35:33;;;;;;;7.63;2.65;;;;;;;8.06;98.91;101256.06;6104353;23;20029;-74
2022/06/13 04:38:02;;;;;;;8.52;2.42;;;;;;;8.28;98.82;101282.78;6101837;23;20066;-75
2022/06/13 04:40:29;;;;;;;9.88;2.70;;;;;;;8.37;98.66;101289.63;6114466;23;20013;-75
2022/06/13 04:43:03;;;;;;;8.15;2.92;;;;;;;8.41;98.27;101296.28;6133536;23;20012;-74
2022/06/13 04:45:49;;;;;;;;;;;;;;;;;;;;;
2022/06/13 04:48:18;;;;;;;7.65;2.10;;;;;;;8.36;97.67;101277.03;6159145;23;20020;-73
2022/06/13 04:50:59;;;;;;;5.50;2.60;;;;;;;8.29;97.29;101277.13;6159591;23;20009;-72
2022/06/13 04:56:58;;;;;;;5.53;2.58;;;;;;;8.42;96.73;101281.56;6158829;23;20024;-71
2022/06/13 04:59:44;;;;;;;10.63;2.78;;;;;;;8.47;96.44;101284.47;6158064;23;20006;-72
2022/06/13 05:10:28;;;;;;;;;;;;;;;;;;;;;
2022/06/13 05:13:16;;;;;;;;;;;;;;;;;;;;;
2022/06/13 05:16:16;;;;;;;;;;;;;;;;;;;;;
2022/06/13 05:19:12;;;;;;;15.93;3.97;;;;;;;8.71;93.73;101271.72;6162382;23;20035;-76
2022/06/13 05:21:51;;;;;;;7.70;3.03;;;;;;;8.98;94.13;101298.63;6137592;23;20036;-77
2022/06/13 05:25:10;;;;;;;;;;;;;;;;;;;;;
2022/06/13 05:27:25;;;;;;;6.95;2.45;;;;;;;8.97;93.30;101257.94;6152968;23;20002;-73
2022/06/13 05:34:06;;;;;;;12.02;3.15;;;;;;;9.51;92.37;101317.91;6162015;23;20025;-73
2022/06/13 05:37:06;;;;;;;9.73;2.40;;;;;;;9.65;92.12;101315.75;6108615;23;20109;-74
2022/06/13 05:39:34;;;;;;;4.78;2.15;;;;;;;9.63;91.36;101296.88;6136654;23;20020;-74
2022/06/13 05:48:47;;;;;;;;;;;;;;;;;;;;;
2022/06/13 05:51:42;;;;;;;5.93;2.28;;;;;;;9.80;90.00;101286.06;6162457;23;20044;-76
2022/06/13 05:54:47;;;;;;;11.05;2.28;;;;;;;10.03;89.60;101296.13;5991641;23;20015;-74
2022/06/13 05:58:02;;;;;;;9.10;2.17;;;;;;;10.26;89.49;101322.53;6014627;23;20059;-75
2022/06/13 06:00:38;;;;;;;4.00;1.60;;;;;;;10.19;89.20;101294.53;6110439;23;20006;-73
2022/06/13 06:03:13;;;;;;;10.05;2.63;;;;;;;10.49;87.87;101329.06;6161899;23;20032;-75
2022/06/13 06:05:40;;;;;;;10.15;3.05;;;;;;;10.59;88.12;101322.97;6135449;23;20416;-74
2022/06/13 06:08:30;;;;;;;5.25;2.25;;;;;;;10.59;87.48;101315.59;6135469;23;20013;-71
2022/06/13 06:10:58;;;;;;;8.63;1.90;;;;;;;10.82;86.97;101332.97;6116266;23;20083;-74
2022/06/13 06:13:26;;;;;;;6.55;2.05;;;;;;;10.86;86.88;101327.81;6159653;23;20538;-74
2022/06/13 06:15:52;;;;;;;6.78;2.03;;;;;;;10.97;86.95;101333.22;6129561;23;20009;-73
2022/06/13 06:18:37;;;;;;;;;;;;;;;;;;;;;
2022/06/13 06:21:03;;;;;;;5.70;1.42;;;;;;;11.12;85.92;101323.63;6136548;23;20029;-75
2022/06/13 06:23:50;;;;;;;6.20;1.73;;;;;;;11.37;84.50;101349.78;6132497;23;20020;-74
2022/06/13 06:34:04;;;;;;;;;;;;;;;;;;;;;
2022/06/13 06:40:13;;;;;;;7.05;1.35;;;;;;;12.21;81.16;101359.81;6005438;23;20080;-74
2022/06/13 06:46:16;;;;;;;4.50;1.10;;;;;;;12.41;78.21;101361.97;6036167;23;20101;-72
2022/06/13 06:48:51;;;;;;;5.05;1.48;;;;;;;12.38;78.72;101341.41;6133374;23;20009;-74
2022/06/13 06:51:29;;;;;;;3.25;1.27;;;;;;;12.47;78.61;101327.22;6137102;23;20006;-72
2022/06/13 07:01:34;;;;;;;;;;;;;;;;;;;;;
2022/06/13 07:04:08;;;;;;;5.65;1.95;;;;;;;13.52;74.29;101342.50;5839543;24;20052;-74
2022/06/13 07:06:56;;;;;;;1.98;1.00;;;;;;;13.71;74.78;101354.75;5936743;24;20069;-74
2022/06/13 07:13:08;;;;;;;1.27;0.73;;;;;;;13.85;73.56;101341.38;6019726;23;20015;-75
2022/06/13 07:15:41;;;;;;;0.90;0.60;;;;;;;14.30;72.54;101372.13;6030970;23;20822;-74
2022/06/13 07:18:09;;;;;;;2.97;0.60;;;;;;;14.46;72.09;101360.09;6048693;23;20134;-74
2022/06/13 07:20:36;;;;;;;4.10;1.00;;;;;;;14.47;71.05;101350.75;6047488;23;20011;-73
2022/06/13 07:23:02;;;;;;;1.38;0.98;;;;;;;14.65;70.98;101373.41;6049485;23;20006;-74
2022/06/13 07:25:43;;;;;;;4.00;1.00;;;;;;;14.53;70.57;101339.75;6154357;23;20294;-70
2022/06/13 07:28:09;;;;;;;2.42;1.05;;;;;;;14.69;69.51;101344.25;6140664;23;20314;-75
2022/06/13 07:30:56;;;;;;;7.18;1.10;;;;;;;14.95;67.24;101371.81;6140460;23;20044;-74
2022/06/13 07:33:34;;;;;;;;;;;;;;;;;;;;;
2022/06/13 07:36:12;;;;;;;2.72;0.70;;;;;;;15.15;67.64;101377.38;6163010;23;20028;-74
2022/06/13 07:39:08;;;;;;;1.83;0.95;;;;;;;15.43;66.97;101375.19;6115754;23;20433;-75
2022/06/13 07:41:43;;;;;;;2.45;0.80;;;;;;;15.81;65.24;101367.47;6097339;23;20021;-76
2022/06/13 07:44:16;;;;;;;2.72;0.88;;;;;;;15.83;64.47;101373.53;6141903;23;20021;-75
2022/06/13 07:46:48;;;;;;;6.80;0.80;;;;;;;15.71;64.80;101348.13;6140281;23;20006;-74
2022/06/13 07:49:14;;;;;;;2.47;1.15;;;;;;;15.93;63.32;101366.34;6165624;23;20360;-75
2022/06/13 07:51:51;;;;;;;6.40;0.93;;;;;;;16.16;63.37;101382.28;6138046;23;20012;-74
2022/06/13 07:54:50;;;;;;;1.50;0.60;;;;;;;16.46;63.58;101358.44;6115305;23;20008;-73
2022/06/13 07:57:25;;;;;;;;;;;;;;;;;;;;;
2022/06/13 07:59:51;;;;;;;2.80;0.80;;;;;;;17.03;61.36;101371.97;6166659;23;20005;-75
2022/06/13 08:02:46;;;;;;;1.60;0.70;;;;;;;17.24;62.03;101379.00;6140323;23;20028;-75
2022/06/13 08:05:11;;;;;;;0.70;0.60;;;;;;;17.44;61.07;101396.53;6139285;23;20463;-75
2022/06/13 08:07:45;;;;;;;2.55;0.93;;;;;;;17.26;56.34;101387.81;6116956;23;20005;-73
2022/06/13 08:10:15;;;;;;;2.35;0.90;;;;;;;16.96;57.36;101377.81;6141516;23;20526;-74
2022/06/13 08:12:45;;;;;;;1.95;0.85;;;;;;;17.21;57.60;101371.28;6142682;23;20016;-76
2022/06/13 08:15:28;;;;;;;2.58;0.75;;;;;;;17.57;56.96;101390.34;6142101;23;20010;-76
2022/06/13 08:17:56;;;;;;;1.85;0.65;;;;;;;17.98;56.46;101402.19;6118527;23;20010;-76
2022/06/13 08:20:25;;;;;;;0.95;0.55;;;;;;;18.23;55.60;101379.75;6167509;23;20021;-75
2022/06/13 08:22:53;;;;;;;2.38;0.75;;;;;;;18.72;51.30;101388.00;6140026;23;20336;-74
2022/06/13 08:25:26;;;;;;;2.70;0.88;;;;;;;19.02;51.21;101408.94;6140921;23;20005;-74
2022/06/13 08:27:52;;;;;;;2.55;0.80;;;;;;;19.62;51.51;101399.97;6140663;23;20108;-74
2022/06/13 08:30:18;;;;;;;1.63;0.70;;;;;;;20.01;50.86;101390.41;6165825;23;20001;-75
2022/06/13 08:32:44;;;;;;;2.03;0.70;;;;;;;20.44;49.27;101405.97;6139542;23;20005;-76
2022/06/13 08:35:11;;;;;;;2.58;0.88;;;;;;;20.47;47.78;101402.59;6164897;23;20029;-75
2022/06/13 08:37:36;;;;;;;1.40;0.80;;;;;;;20.29;47.41;101403.50;6165488;23;20006;-76
2022/06/13 08:40:06;;;;;;;0.77;0.70;;;;;;;20.39;48.00;101406.09;6137660;23;20005;-74
2022/06/13 08:42:49;;;;;;;2.08;0.82;;;;;;;20.83;44.73;101398.25;6138193;23;20072;-74
2022/06/13 08:45:31;;;;;;;3.60;1.38;;;;;;;21.21;44.80;101403.50;6139276;23;20543;-76
2022/06/13 08:48:15;;;;;;;1.95;0.73;;;;;;;22.01;44.68;101397.34;6139934;23;20254;-76
2022/06/13 08:50:55;;;;;;;1.95;0.63;;;;;;;22.52;42.94;101404.28;6165607;23;20006;-74
2022/06/13 08:53:35;;;;;;;3.83;0.90;;;;;;;22.89;39.72;101398.44;6165368;23;20001;-75
2022/06/13 08:56:29;;;;;;;3.28;0.77;;;;;;;22.94;38.82;101421.41;6140760;23;20069;-75
2022/06/13 09:05:33;;;;;;;1.67;0.70;;;;;;;22.16;38.85;101415.59;6016989;23;20020;-74
2022/06/13 09:08:37;;;;;;;0.88;0.55;;;;;;;21.68;39.04;101406.78;6137320;23;20400;-75
2022/06/13 09:11:26;;;;;;;1.45;0.77;;;;;;;21.44;39.79;101416.25;6136733;23;20002;-75
2022/06/13 09:14:32;;;;;;;0.40;0.40;;;;;;;21.41;40.79;101413.31;6109518;23;20429;-75
2022/06/13 09:17:03;;;;;;;1.83;0.60;;;;;;;20.67;38.85;101381.88;6134855;23;20002;-75
2022/06/13 09:20:06;;;;;;;1.92;0.85;;;;;;;20.22;40.10;101407.53;6109815;23;20005;-74
2022/06/13 09:23:20;;;;;;;2.10;0.90;;;;;;;20.15;40.52;101418.22;6106372;23;20013;-74
2022/06/13 09:30:45;;;;;;;0.85;0.55;;;;;;;22.44;38.79;101408.69;6068915;23;20033;-74
2022/06/13 09:40:01;;;;;;;1.30;0.82;;;;;;;23.21;34.62;101404.72;6067847;23;20014;-73
2022/06/13 09:46:09;;;;;;;1.20;0.80;;;;;;;23.14;35.04;101408.84;6056937;23;20539;-73
2022/06/13 09:49:04;;;;;;;2.22;0.60;;;;;;;22.76;34.92;101411.38;6130949;23;19998;-72
2022/06/13 09:55:10;;;;;;;1.48;0.57;;;;;;;22.37;35.93;101408.31;6131842;23;20016;-74
2022/06/13 09:57:57;;;;;;;1.55;0.70;;;;;;;22.98;35.85;101414.03;6132745;23;20002;-74
2022/06/13 10:00:36;;;;;;;0.82;0.60;;;;;;;23.81;35.36;101400.19;6107025;23;20029;-75
2022/06/13 10:03:17;;;;;;;1.33;0.60;;;;;;;24.55;34.20;101407.31;6119421;23;20017;-74
2022/06/13 10:05:47;;;;;;;4.10;0.95;;;;;;;24.31;32.92;101416.31;6162690;23;20001;-74
2022/06/13 10:12:46;;;;;;;1.17;0.70;;;;;;;23.76;34.22;101415.16;6160664;23;20025;-73
2022/06/13 10:15:57;;;;;;;;;;;;;;;;;;;;;
2022/06/13 10:19:23;;;;;;;1.58;0.90;;;;;;;23.67;33.36;101405.97;5988089;24;20038;-74
2022/06/13 10:22:12;;;;;;;1.65;0.70;;;;;;;24.38;33.80;101391.44;5953593;24;20479;-74
2022/06/13 10:25:03;;;;;;;2.45;0.70;;;;;;;25.61;32.15;101390.53;6045044;23;20007;-74
2022/06/13 10:28:00;;;;;;;1.85;0.77;;;;;;;26.62;30.01;101405.97;6120753;23;20084;-75
2022/06/13 10:30:38;;;;;;;;;;;;;;;;;;;;;
2022/06/13 10:40:48;;;;;;;;;;;;;;;;;;;;;
2022/06/13 10:43:15;;;;;;;2.40;0.85;;;;;;;29.85;27.38;101399.63;6070580;23;20526;-75
2022/06/13 10:45:42;;;;;;;5.18;1.67;;;;;;;30.95;22.71;101385.63;6052160;23;20019;-75
2022/06/13 10:48:41;;;;;;;1.67;0.68;;;;;;;32.29;22.04;101421.84;6049792;23;20451;-75
2022/06/13 10:51:09;;;;;;;1.50;0.90;;;;;;;33.43;20.75;101394.56;6051181;23;20007;-74
2022/06/13 10:54:21;;;;;;;1.52;0.88;;;;;;;34.81;20.00;101407.59;6049154;23;20062;-75
2022/06/13 10:57:25;;;;;;;3.17;0.98;;;;;;;36.22;17.18;101409.66;6036790;23;20066;-73
2022/06/13 11:07:34;;;;;;;;;;;;;;;;;;;;;
2022/06/13 11:10:28;;;;;;;2.33;0.73;;;;;;;28.57;24.59;101360.75;5906277;24;20422;-75
2022/06/13 11:12:55;;;;;;;2.17;1.08;;;;;;;27.72;26.22;101405.22;6052795;23;20101;-75
2022/06/13 11:28:51;;;;;;;1.30;0.90;;;;;;;40.21;15.35;101409.81;5963307;24;20087;-72
2022/06/13 11:32:18;;;;;;;;;;;;;;;;;;;;;
2022/06/13 11:34:53;;;;;;;1.60;0.65;;;;;;;44.18;11.61;101388.41;5968438;23;20386;-77
2022/06/13 11:37:25;;;;;;;1.17;0.73;;;;;;;45.55;11.63;101365.56;6026669;23;20415;-75
2022/06/13 11:40:17;;;;;;;1.10;0.50;;;;;;;47.63;11.75;101383.72;6095253;23;20088;-76
2022/06/13 11:42:54;;;;;;;0.80;0.70;;;;;;;44.03;11.62;101365.16;6139722;23;20013;-75
2022/06/13 11:45:57;;;;;;;0.82;0.50;;;;;;;39.71;14.11;101368.94;6115645;23;20005;-75
2022/06/13 11:49:34;;;;;;;;;;;;;;;;;;;;;
2022/06/13 11:52:02;;;;;;;2.67;0.82;;;;;;;31.15;20.78;101351.59;6018889;23;20038;-76
2022/06/13 11:54:34;;;;;;;3.20;1.10;;;;;;;29.57;22.20;101344.31;6161845;23;20436;-76
2022/06/13 11:57:49;;;;;;;;;;;;;;;;;;;;;
2022/06/13 12:00:18;;;;;;;2.30;1.10;;;;;;;28.12;24.13;101340.41;6157359;23;20025;-75
2022/06/13 12:02:49;;;;;;;1.25;0.60;;;;;;;28.57;24.06;101346.66;6139099;23;20342;-75
2022/06/13 12:05:19;;;;;;;0.60;0.55;;;;;;;29.03;23.10;101329.16;6164143;23;20065;-76
2022/06/13 12:08:39;;;;;;;1.80;0.80;;;;;;;29.08;23.28;101351.41;6167023;23;20001;-75
2022/06/13 12:11:34;;;;;;;0.88;0.60;;;;;;;28.93;23.67;101333.41;6137925;23;20002;-74
2022/06/13 12:14:07;;;;;;;2.47;0.80;;;;;;;28.27;24.23;101335.97;6161040;23;20006;-75
2022/06/13 12:16:45;;;;;;;0.82;0.70;;;;;;;27.55;25.06;101328.50;6115130;23;20012;-77
2022/06/13 12:23:05;;;;;;;1.70;0.77;;;;;;;28.01;25.11;101326.09;6140336;23;20006;-75
2022/06/13 12:26:18;;;;;;;1.40;0.70;;;;;;;28.39;25.55;101307.69;6136785;23;20013;-76
2022/06/13 12:32:15;;;;;;;3.70;1.20;;;;;;;29.43;24.32;101314.69;6169888;23;20013;-84
2022/06/13 12:35:51;;;;;;;;;;;;;;;;;;;;;
2022/06/13 12:38:45;;;;;;;3.13;0.88;;;;;;;31.27;22.46;101325.09;6153802;23;20002;-75
2022/06/13 12:42:00;;;;;;;;;;;;;;;;;;;;;
2022/06/13 12:44:56;;;;;;;4.03;1.15;;;;;;;33.73;20.45;101336.69;6166710;23;20021;-76
2022/06/13 12:48:06;;;;;;;;;;;;;;;;;;;;;
2022/06/13 12:50:56;;;;;;;1.30;0.80;;;;;;;42.10;14.43;101347.16;6128483;23;20025;-75
2022/06/13 12:53:42;;;;;;;0.88;0.73;;;;;;;47.95;11.25;101352.81;6140327;23;20002;-78
2022/06/13 12:56:29;;;;;;;2.63;1.00;;;;;;;51.03;8.06;101339.66;6139874;23;20088;-76
2022/06/13 12:59:16;;;;;;;2.05;0.60;;;;;;;52.92;7.13;101333.97;6140953;23;20005;-76
2022/06/13 13:06:09;;;;;;;;;;;;;;;;;;;;;
2022/06/13 13:08:59;;;;;;;0.90;0.60;;;;;;;55.99;5.68;101315.31;6102038;23;20042;-74
2022/06/13 13:11:51;;;;;;;2.10;1.00;;;;;;;56.45;5.81;101307.00;6109231;23;20002;-75
2022/06/13 13:14:39;;;;;;;1.45;0.68;;;;;;;56.91;4.02;101307.38;6106980;23;20026;-77
2022/06/13 13:17:32;;;;;;;1.35;0.70;;;;;;;54.18;4.08;101305.66;6105740;23;20028;-76
2022/06/13 13:20:36;;;;;;;1.52;0.60;;;;;;;52.97;4.61;101306.03;6108563;23;20029;-76
2022/06/13 13:23:28;;;;;;;2.78;0.70;;;;;;;52.59;5.39;101271.63;6092650;23;20082;-76
2022/06/13 13:26:41;;;;;;;;;;;;;;;;;;;;;
2022/06/13 13:30:19;;;;;;;1.52;0.70;;;;;;;54.70;4.74;101302.69;5966646;23;20059;-75
2022/06/13 13:33:00;;;;;;;;;;;;;;;;;;;;;
2022/06/13 13:35:32;;;;;;;1.80;0.70;;;;;;;51.52;5.19;101281.81;6005848;23;20029;-75
2022/06/13 13:38:24;;;;;;;0.97;0.50;;;;;;;45.12;8.21;101243.56;6110170;23;20321;-77
2022/06/13 13:41:16;;;;;;;1.58;0.95;;;;;;;45.53;8.41;101251.84;6074270;23;20298;-75
2022/06/13 13:44:00;;;;;;;;;;;;;;;;;;;;;
2022/06/13 13:46:42;;;;;;;1.38;0.75;;;;;;;50.32;6.28;101257.09;6131734;23;20179;-77
2022/06/13 13:49:20;;;;;;;;;;;;;;;;;;;;;
2022/06/13 13:52:27;;;;;;;1.33;0.90;;;;;;;50.67;6.03;101281.97;6134022;23;20374;-75
2022/06/13 13:55:18;;;;;;;1.65;0.90;;;;;;;50.71;6.19;101267.97;6133255;23;20010;-75
2022/06/13 13:58:33;;;;;;;;;;;;;;;;;;;;;
2022/06/13 14:01:29;;;;;;;1.75;0.70;;;;;;;51.38;5.45;101242.16;6082248;23;20041;-77
2022/06/13 14:04:30;;;;;;;0.75;0.45;;;;;;;53.75;5.91;101242.19;6128724;23;20013;-73
2022/06/13 14:07:30;;;;;;;;;;;;;;;;;;;;;
2022/06/13 14:09:58;;;;;;;0.90;0.63;;;;;;;51.02;4.96;101222.41;6166006;23;20036;-75
2022/06/13 14:12:52;;;;;;;0.77;0.47;;;;;;;49.37;6.74;101241.72;6166067;23;20060;-75
2022/06/13 14:15:49;;;;;;;0.75;0.63;;;;;;;49.93;5.83;101212.13;6129403;23;20009;-75
2022/06/13 14:18:38;;;;;;;1.02;0.77;;;;;;;43.64;8.57;101200.66;6081037;23;20021;-76
2022/06/13 14:21:31;;;;;;;1.20;0.80;;;;;;;39.93;10.76;101228.91;6139765;23;20024;-76
2022/06/13 14:24:21;;;;;;;;;;;;;;;;;;;;;
2022/06/13 14:27:28;;;;;;;;;;;;;;;;;;;;;
2022/06/13 14:36:47;;;;;;;2.88;0.90;;;;;;;31.05;19.19;101186.47;6165198;23;20068;-75
2022/06/13 14:39:36;;;;;;;1.70;0.80;;;;;;;31.86;18.99;101161.28;6136114;23;20009;-74
2022/06/13 14:42:01;;;;;;;1.55;0.60;;;;;;;38.06;15.38;101200.59;6136662;23;20080;-75
2022/06/13 14:45:10;;;;;;;1.55;0.95;;;;;;;43.73;11.40;101207.19;6164375;23;20009;-74
2022/06/13 14:47:42;;;;;;;0.93;0.55;;;;;;;45.75;9.93;101222.63;6158006;23;20311;-80
2022/06/13 14:50:08;;;;;;;2.53;1.00;;;;;;;41.95;11.25;101205.34;6137026;23;20016;-76
2022/06/13 14:52:39;;;;;;;2.22;0.80;;;;;;;38.18;13.27;101184.06;6135292;23;20009;-75
2022/06/13 14:55:07;;;;;;;4.18;0.65;;;;;;;35.51;15.34;101196.47;6142482;23;20006;-76
2022/06/13 14:57:32;;;;;;;3.28;1.35;;;;;;;33.40;17.20;101177.13;6165757;23;20002;-75
2022/06/13 15:00:19;;;;;;;1.10;0.70;;;;;;;31.93;18.72;101185.97;6139941;23;20006;-76
2022/06/13 15:02:59;;;;;;;2.13;0.85;;;;;;;30.84;19.25;101189.06;6142464;23;20005;-76
2022/06/13 15:05:30;;;;;;;3.60;0.85;;;;;;;30.18;20.75;101164.06;6139610;23;20024;-77
2022/06/13 15:08:39;;;;;;;5.80;1.05;;;;;;;30.04;20.78;101153.44;6140840;23;20009;-75
2022/06/13 15:11:15;;;;;;;1.95;0.80;;;;;;;30.57;21.02;101175.88;6141202;23;20068;-75
2022/06/13 15:13:43;;;;;;;1.77;0.80;;;;;;;35.44;17.89;101176.63;6166812;23;20012;-74
2022/06/13 15:16:10;;;;;;;1.58;0.60;;;;;;;40.46;15.24;101183.63;6137113;23;20005;-74
2022/06/13 15:18:39;;;;;;;1.77;0.65;;;;;;;43.76;12.62;101194.72;6140928;23;20013;-75
2022/06/13 15:21:12;;;;;;;2.92;0.80;;;;;;;41.99;11.71;101165.81;6167744;23;20008;-77
2022/06/13 15:23:42;;;;;;;;;;;;;;;40.00;12.86;101182.91;6140855;23;20328;-75
2022/06/13 15:26:45;;;;;;;1.65;0.80;;;;;;;39.95;13.44;101147.06;6163600;23;19991;-76
2022/06/13 15:29:22;;;;;;;1.02;0.70;;;;;;;43.96;11.93;101184.81;6162602;23;20029;-75
2022/06/13 15:32:03;;;;;;;2.22;0.98;;;;;;;45.23;10.23;101179.56;6137662;23;20002;-75
2022/06/13 15:34:48;;;;;;;1.85;0.80;;;;;;;46.67;9.59;101187.03;6138359;23;20080;-73
2022/06/13 15:37:14;;;;;;;0.60;0.47;;;;;;;48.09;9.12;101179.31;6162934;23;20314;-73
2022/06/13 15:39:46;;;;;;;1.95;0.73;;;;;;;48.60;7.94;101171.84;6133954;23;20012;-74
2022/06/13 15:42:22;;;;;;;1.42;0.85;;;;;;;48.02;7.85;101175.56;6135810;23;20068;-78
2022/06/13 15:44:52;;;;;;;1.20;0.82;;;;;;;47.12;7.96;101168.72;6137900;23;20011;-76
2022/06/13 15:47:31;;;;;;;5.25;0.93;;;;;;;46.57;8.35;101171.06;6115714;23;20013;-78
2022/06/13 15:50:05;;;;;;;4.75;0.88;;;;;;;45.89;8.67;101169.88;6143011;23;20006;-73
2022/06/13 15:52:49;;;;;;;;;;;;;;;;;;;;;
2022/06/13 15:55:42;;;;;;;2.05;0.90;;;;;;;43.53;9.74;101143.53;6166632;23;20494;-74
2022/06/13 15:58:19;;;;;;;;;;;;;;;44.19;9.74;101151.63;6141943;23;20075;-74
2022/06/13 16:00:58;;;;;;;;;;;;;;;;;;;;;
2022/06/13 16:03:28;;;;;;;2.10;0.68;;;;;;;43.65;9.66;101142.59;6166263;23;20036;-75
2022/06/13 16:05:53;;;;;;;3.65;0.77;;;;;;;44.17;9.24;101147.63;6138943;23;20016;-74
2022/06/13 16:08:22;;;;;;;1.15;0.80;;;;;;;44.11;10.06;101135.97;6139237;23;20005;-75
2022/06/13 16:10:52;;;;;;;2.00;0.90;;;;;;;44.62;9.90;101157.41;6138857;23;20002;-73
2022/06/13 16:13:27;;;;;;;1.27;1.00;;;;;;;44.82;9.25;101145.34;6162124;23;20009;-73
2022/06/13 16:16:03;;;;;;;2.55;1.17;;;;;;;43.99;9.53;101139.84;6137801;23;20036;-74
2022/06/13 16:18:34;;;;;;;1.58;0.90;;;;;;;42.90;9.97;101135.94;6165858;23;20005;-75
2022/06/13 16:21:03;;;;;;;3.33;0.90;;;;;;;42.79;10.53;101135.59;6164696;23;20002;-75
2022/06/13 16:23:52;;;;;;;2.03;0.90;;;;;;;39.87;11.77;101121.97;6141907;23;20006;-76
2022/06/13 16:26:22;;;;;;;1.88;0.82;;;;;;;36.20;14.32;101116.88;6164993;23;20017;-76
2022/06/13 16:28:49;;;;;;;1.60;1.02;;;;;;;33.22;16.94;101117.63;6142300;23;20009;-74
2022/06/13 16:31:18;;;;;;;2.00;0.95;;;;;;;31.19;18.88;101108.72;6115099;23;20010;-74
2022/06/13 16:33:55;;;;;;;2.58;1.05;;;;;;;29.92;20.78;101110.19;6165920;23;20056;-74
2022/06/13 16:36:43;;;;;;;3.80;1.08;;;;;;;29.06;21.37;101114.50;6140653;23;20029;-74
2022/06/13 16:42:57;;;;;;;1.48;1.00;;;;;;;27.85;23.00;101114.50;6102647;23;20014;-74
2022/06/13 17:43:21;;;;;;;2.25;0.90;;;;;;;35.46;16.70;101080.38;6142334;23;20021;-76
2022/06/13 18:03:45;;;;;;;;;;;;;;;;;;;;;
2022/06/13 18:10:24;;;;;;;;;;;;;;;;;;;;;
2022/06/13 18:16:21;;;;;;;3.20;1.30;;;;;;;22.91;35.26;101072.66;5704371;25;20079;-74
2022/06/13 18:22:28;;;;;;;3.63;1.23;;;;;;;21.57;39.46;101043.69;5697317;25;20335;-80
2022/06/13 18:25:33;;;;;;;;;;;;;;;;;;;;;
2022/06/13 18:28:26;;;;;;;3.22;1.20;;;;;;;20.79;40.85;101041.47;5968474;24;20039;-76
2022/06/13 18:31:06;;;;;;;2.55;1.40;;;;;;;20.61;40.15;101063.59;6136508;23;20016;-79